sensor_id;sensor_type;location;lat;lon;timestamp;P1;durP1;ratioP1;P2;durP2;ratioP2
16472;SDS011;8347;52.486;13.432;2022-11-15T00:01:18;36.85;;;23.60;;
16472;SDS011;8347;52.486;13.432;2022-11-15T00:04:23;37.03;;;23.80;;
16472;SDS011;8347;52.486;13.432;2022-11-15T00:07:28;41.35;;;25.25;;
16472;SDS011;8347;52.486;13.432;2022-11-15T00:10:34;36.20;;;23.92;;
16472;SDS011;8347;52.486;13.432;2022-11-15T00:13:39;39.30;;;23.75;;
16472;SDS011;8347;52.486;13.432;2022-11-15T00:16:44;36.83;;;23.30;;
16472;SDS011;8347;52.486;13.432;2022-11-15T00:19:49;36.95;;;23.42;;
16472;SDS011;8347;52.486;13.432;2022-11-15T00:22:54;34.47;;;22.73;;
16472;SDS011;8347;52.486;13.432;2022-11-15T00:25:59;34.95;;;23.52;;
16472;SDS011;8347;52.486;13.432;2022-11-15T00:29:04;37.38;;;23.90;;
16472;SDS011;8347;52.486;13.432;2022-11-15T00:32:10;37.92;;;24.08;;
16472;SDS011;8347;52.486;13.432;2022-11-15T00:35:15;38.35;;;23.85;;
16472;SDS011;8347;52.486;13.432;2022-11-15T00:38:20;37.60;;;23.70;;
16472;SDS011;8347;52.486;13.432;2022-11-15T00:41:25;40.13;;;24.95;;
16472;SDS011;8347;52.486;13.432;2022-11-15T00:44:30;39.13;;;23.35;;
16472;SDS011;8347;52.486;13.432;2022-11-15T00:47:35;35.17;;;22.63;;
16472;SDS011;8347;52.486;13.432;2022-11-15T00:50:40;35.28;;;23.48;;
16472;SDS011;8347;52.486;13.432;2022-11-15T00:53:45;38.83;;;22.83;;
16472;SDS011;8347;52.486;13.432;2022-11-15T00:56:50;34.30;;;22.88;;
16472;SDS011;8347;52.486;13.432;2022-11-15T00:59:55;37.40;;;22.77;;
16472;SDS011;8347;52.486;13.432;2022-11-15T01:03:00;40.15;;;23.73;;
16472;SDS011;8347;52.486;13.432;2022-11-15T01:06:06;35.83;;;22.98;;
16472;SDS011;8347;52.486;13.432;2022-11-15T01:09:11;38.40;;;22.60;;
16472;SDS011;8347;52.486;13.432;2022-11-15T01:12:17;36.08;;;22.27;;
16472;SDS011;8347;52.486;13.432;2022-11-15T01:15:22;38.88;;;23.92;;
16472;SDS011;8347;52.486;13.432;2022-11-15T01:18:27;39.25;;;24.33;;
16472;SDS011;8347;52.486;13.432;2022-11-15T01:21:32;42.75;;;24.63;;
16472;SDS011;8347;52.486;13.432;2022-11-15T01:24:37;40.28;;;23.88;;
16472;SDS011;8347;52.486;13.432;2022-11-15T01:27:42;34.65;;;22.17;;
16472;SDS011;8347;52.486;13.432;2022-11-15T01:30:46;40.33;;;23.38;;
16472;SDS011;8347;52.486;13.432;2022-11-15T01:33:52;37.30;;;22.60;;
16472;SDS011;8347;52.486;13.432;2022-11-15T01:36:57;40.92;;;24.15;;
16472;SDS011;8347;52.486;13.432;2022-11-15T01:40:03;37.13;;;22.33;;
16472;SDS011;8347;52.486;13.432;2022-11-15T01:43:22;34.50;;;22.05;;
16472;SDS011;8347;52.486;13.432;2022-11-15T01:46:31;36.60;;;21.80;;
16472;SDS011;8347;52.486;13.432;2022-11-15T01:49:39;34.45;;;22.65;;
16472;SDS011;8347;52.486;13.432;2022-11-15T01:52:49;36.08;;;23.00;;
16472;SDS011;8347;52.486;13.432;2022-11-15T01:55:54;39.05;;;25.23;;
16472;SDS011;8347;52.486;13.432;2022-11-15T01:59:00;40.55;;;24.23;;
16472;SDS011;8347;52.486;13.432;2022-11-15T02:02:07;38.67;;;22.92;;
16472;SDS011;8347;52.486;13.432;2022-11-15T02:05:13;39.83;;;23.80;;
16472;SDS011;8347;52.486;13.432;2022-11-15T02:08:18;40.90;;;23.85;;
16472;SDS011;8347;52.486;13.432;2022-11-15T02:11:26;39.83;;;24.10;;
16472;SDS011;8347;52.486;13.432;2022-11-15T02:14:32;39.08;;;22.75;;
16472;SDS011;8347;52.486;13.432;2022-11-15T02:17:50;38.65;;;22.30;;
16472;SDS011;8347;52.486;13.432;2022-11-15T02:21:17;41.72;;;24.65;;
16472;SDS011;8347;52.486;13.432;2022-11-15T02:24:54;39.38;;;23.48;;
16472;SDS011;8347;52.486;13.432;2022-11-15T02:28:16;38.47;;;23.45;;
16472;SDS011;8347;52.486;13.432;2022-11-15T02:31:56;38.78;;;22.63;;
16472;SDS011;8347;52.486;13.432;2022-11-15T02:35:23;37.85;;;21.92;;
16472;SDS011;8347;52.486;13.432;2022-11-15T02:38:35;42.42;;;24.70;;
16472;SDS011;8347;52.486;13.432;2022-11-15T02:41:57;42.00;;;24.05;;
16472;SDS011;8347;52.486;13.432;2022-11-15T02:45:07;38.33;;;23.45;;
16472;SDS011;8347;52.486;13.432;2022-11-15T02:48:14;34.53;;;22.20;;
16472;SDS011;8347;52.486;13.432;2022-11-15T02:51:20;41.92;;;24.13;;
16472;SDS011;8347;52.486;13.432;2022-11-15T02:54:28;35.95;;;24.08;;
16472;SDS011;8347;52.486;13.432;2022-11-15T02:57:39;37.92;;;23.98;;
16472;SDS011;8347;52.486;13.432;2022-11-15T03:01:19;41.72;;;24.25;;
16472;SDS011;8347;52.486;13.432;2022-11-15T03:04:44;38.45;;;23.33;;
16472;SDS011;8347;52.486;13.432;2022-11-15T03:08:16;38.50;;;24.35;;
16472;SDS011;8347;52.486;13.432;2022-11-15T03:11:28;38.08;;;22.05;;
16472;SDS011;8347;52.486;13.432;2022-11-15T03:14:36;34.10;;;21.92;;
16472;SDS011;8347;52.486;13.432;2022-11-15T03:21:14;37.78;;;24.20;;
16472;SDS011;8347;52.486;13.432;2022-11-15T03:24:21;37.30;;;24.38;;
16472;SDS011;8347;52.486;13.432;2022-11-15T03:27:29;47.90;;;26.58;;
16472;SDS011;8347;52.486;13.432;2022-11-15T03:30:47;36.90;;;22.73;;
16472;SDS011;8347;52.486;13.432;2022-11-15T03:33:55;38.42;;;23.63;;
16472;SDS011;8347;52.486;13.432;2022-11-15T03:37:02;40.35;;;24.23;;
16472;SDS011;8347;52.486;13.432;2022-11-15T03:40:08;40.08;;;24.92;;
16472;SDS011;8347;52.486;13.432;2022-11-15T03:43:23;40.80;;;24.50;;
16472;SDS011;8347;52.486;13.432;2022-11-15T03:46:33;38.88;;;24.00;;
16472;SDS011;8347;52.486;13.432;2022-11-15T03:49:51;39.00;;;23.63;;
16472;SDS011;8347;52.486;13.432;2022-11-15T03:52:57;39.20;;;24.17;;
16472;SDS011;8347;52.486;13.432;2022-11-15T03:56:03;40.25;;;23.73;;
16472;SDS011;8347;52.486;13.432;2022-11-15T03:59:08;40.28;;;23.23;;
16472;SDS011;8347;52.486;13.432;2022-11-15T04:02:13;46.47;;;23.35;;
16472;SDS011;8347;52.486;13.432;2022-11-15T04:05:18;36.17;;;23.63;;
16472;SDS011;8347;52.486;13.432;2022-11-15T04:08:23;36.75;;;23.42;;
16472;SDS011;8347;52.486;13.432;2022-11-15T04:11:28;39.28;;;23.67;;
16472;SDS011;8347;52.486;13.432;2022-11-15T04:14:34;41.95;;;22.63;;
16472;SDS011;8347;52.486;13.432;2022-11-15T04:17:43;37.28;;;23.17;;
16472;SDS011;8347;52.486;13.432;2022-11-15T04:20:49;35.75;;;22.33;;
16472;SDS011;8347;52.486;13.432;2022-11-15T04:24:13;33.97;;;21.60;;
16472;SDS011;8347;52.486;13.432;2022-11-15T04:27:18;39.40;;;23.48;;
16472;SDS011;8347;52.486;13.432;2022-11-15T04:30:23;37.42;;;23.60;;
16472;SDS011;8347;52.486;13.432;2022-11-15T04:33:29;36.80;;;23.13;;
16472;SDS011;8347;52.486;13.432;2022-11-15T04:36:34;38.38;;;23.27;;
16472;SDS011;8347;52.486;13.432;2022-11-15T04:39:58;38.40;;;22.98;;
16472;SDS011;8347;52.486;13.432;2022-11-15T04:43:03;36.55;;;22.60;;
16472;SDS011;8347;52.486;13.432;2022-11-15T04:46:09;35.30;;;22.05;;
16472;SDS011;8347;52.486;13.432;2022-11-15T04:49:14;39.03;;;21.55;;
16472;SDS011;8347;52.486;13.432;2022-11-15T04:52:19;38.22;;;24.20;;
16472;SDS011;8347;52.486;13.432;2022-11-15T04:55:24;38.03;;;23.60;;
16472;SDS011;8347;52.486;13.432;2022-11-15T04:58:29;39.13;;;24.05;;
16472;SDS011;8347;52.486;13.432;2022-11-15T05:01:34;37.72;;;23.27;;
16472;SDS011;8347;52.486;13.432;2022-11-15T05:04:39;38.45;;;23.42;;
16472;SDS011;8347;52.486;13.432;2022-11-15T05:07:44;35.80;;;22.23;;
16472;SDS011;8347;52.486;13.432;2022-11-15T05:10:50;37.25;;;21.77;;
16472;SDS011;8347;52.486;13.432;2022-11-15T05:13:55;39.03;;;23.25;;
16472;SDS011;8347;52.486;13.432;2022-11-15T05:17:00;36.10;;;22.33;;
16472;SDS011;8347;52.486;13.432;2022-11-15T05:20:06;37.08;;;22.88;;
16472;SDS011;8347;52.486;13.432;2022-11-15T05:23:11;40.65;;;23.30;;
16472;SDS011;8347;52.486;13.432;2022-11-15T05:26:16;40.42;;;24.90;;
16472;SDS011;8347;52.486;13.432;2022-11-15T05:29:22;39.75;;;24.42;;
16472;SDS011;8347;52.486;13.432;2022-11-15T05:32:27;40.83;;;23.38;;
16472;SDS011;8347;52.486;13.432;2022-11-15T05:35:34;37.72;;;23.70;;
16472;SDS011;8347;52.486;13.432;2022-11-15T05:38:40;37.42;;;22.88;;
16472;SDS011;8347;52.486;13.432;2022-11-15T05:41:47;37.65;;;23.25;;
16472;SDS011;8347;52.486;13.432;2022-11-15T05:44:53;40.30;;;23.80;;
16472;SDS011;8347;52.486;13.432;2022-11-15T05:47:58;34.63;;;22.02;;
16472;SDS011;8347;52.486;13.432;2022-11-15T05:51:05;43.42;;;24.33;;
16472;SDS011;8347;52.486;13.432;2022-11-15T05:54:11;37.42;;;21.27;;
16472;SDS011;8347;52.486;13.432;2022-11-15T05:57:17;35.90;;;23.20;;
16472;SDS011;8347;52.486;13.432;2022-11-15T06:00:21;38.10;;;23.92;;
16472;SDS011;8347;52.486;13.432;2022-11-15T06:03:26;36.30;;;22.85;;
16472;SDS011;8347;52.486;13.432;2022-11-15T06:06:32;35.92;;;23.25;;
16472;SDS011;8347;52.486;13.432;2022-11-15T06:09:37;38.83;;;22.85;;
16472;SDS011;8347;52.486;13.432;2022-11-15T06:12:42;38.13;;;23.63;;
16472;SDS011;8347;52.486;13.432;2022-11-15T06:15:47;35.50;;;22.10;;
16472;SDS011;8347;52.486;13.432;2022-11-15T06:18:52;38.65;;;23.73;;
16472;SDS011;8347;52.486;13.432;2022-11-15T06:21:58;39.80;;;23.65;;
16472;SDS011;8347;52.486;13.432;2022-11-15T06:25:03;41.35;;;24.17;;
16472;SDS011;8347;52.486;13.432;2022-11-15T06:28:08;44.22;;;26.40;;
16472;SDS011;8347;52.486;13.432;2022-11-15T06:31:13;41.92;;;24.80;;
16472;SDS011;8347;52.486;13.432;2022-11-15T06:34:18;40.00;;;24.70;;
16472;SDS011;8347;52.486;13.432;2022-11-15T06:37:24;40.45;;;25.58;;
16472;SDS011;8347;52.486;13.432;2022-11-15T06:40:29;45.28;;;24.65;;
16472;SDS011;8347;52.486;13.432;2022-11-15T06:43:34;41.95;;;23.30;;
16472;SDS011;8347;52.486;13.432;2022-11-15T06:46:39;41.20;;;25.38;;
16472;SDS011;8347;52.486;13.432;2022-11-15T06:49:44;37.97;;;23.05;;
16472;SDS011;8347;52.486;13.432;2022-11-15T06:52:50;36.97;;;22.27;;
16472;SDS011;8347;52.486;13.432;2022-11-15T06:55:58;39.13;;;22.92;;
16472;SDS011;8347;52.486;13.432;2022-11-15T06:59:03;37.92;;;22.52;;
16472;SDS011;8347;52.486;13.432;2022-11-15T07:02:14;35.63;;;22.85;;
16472;SDS011;8347;52.486;13.432;2022-11-15T07:05:19;38.95;;;23.98;;
16472;SDS011;8347;52.486;13.432;2022-11-15T07:08:26;39.25;;;23.80;;
16472;SDS011;8347;52.486;13.432;2022-11-15T07:11:32;37.50;;;23.60;;
16472;SDS011;8347;52.486;13.432;2022-11-15T07:14:39;40.35;;;24.95;;
16472;SDS011;8347;52.486;13.432;2022-11-15T07:17:44;37.67;;;23.08;;
16472;SDS011;8347;52.486;13.432;2022-11-15T07:20:49;39.17;;;23.48;;
16472;SDS011;8347;52.486;13.432;2022-11-15T07:23:55;37.53;;;23.52;;
16472;SDS011;8347;52.486;13.432;2022-11-15T07:27:00;39.95;;;24.13;;
16472;SDS011;8347;52.486;13.432;2022-11-15T07:30:05;40.10;;;24.23;;
16472;SDS011;8347;52.486;13.432;2022-11-15T07:33:11;41.80;;;25.48;;
16472;SDS011;8347;52.486;13.432;2022-11-15T07:36:16;41.50;;;25.38;;
16472;SDS011;8347;52.486;13.432;2022-11-15T07:39:21;44.83;;;25.48;;
16472;SDS011;8347;52.486;13.432;2022-11-15T07:42:26;42.83;;;25.60;;
16472;SDS011;8347;52.486;13.432;2022-11-15T07:45:50;38.67;;;24.38;;
16472;SDS011;8347;52.486;13.432;2022-11-15T07:48:54;43.17;;;24.67;;
16472;SDS011;8347;52.486;13.432;2022-11-15T07:52:00;41.08;;;25.17;;
16472;SDS011;8347;52.486;13.432;2022-11-15T07:55:05;43.92;;;24.33;;
16472;SDS011;8347;52.486;13.432;2022-11-15T07:58:11;39.67;;;24.73;;
16472;SDS011;8347;52.486;13.432;2022-11-15T08:01:16;43.05;;;25.88;;
16472;SDS011;8347;52.486;13.432;2022-11-15T08:04:21;44.70;;;25.60;;
16472;SDS011;8347;52.486;13.432;2022-11-15T08:07:28;44.50;;;25.35;;
16472;SDS011;8347;52.486;13.432;2022-11-15T08:10:35;41.65;;;24.27;;
16472;SDS011;8347;52.486;13.432;2022-11-15T08:13:40;40.40;;;24.63;;
16472;SDS011;8347;52.486;13.432;2022-11-15T08:16:45;40.33;;;25.23;;
16472;SDS011;8347;52.486;13.432;2022-11-15T08:19:51;44.92;;;26.70;;
16472;SDS011;8347;52.486;13.432;2022-11-15T08:22:56;39.35;;;23.55;;
16472;SDS011;8347;52.486;13.432;2022-11-15T08:26:03;37.95;;;23.45;;
16472;SDS011;8347;52.486;13.432;2022-11-15T08:29:09;39.03;;;23.65;;
16472;SDS011;8347;52.486;13.432;2022-11-15T08:32:14;43.95;;;24.40;;
16472;SDS011;8347;52.486;13.432;2022-11-15T08:35:19;37.03;;;23.20;;
16472;SDS011;8347;52.486;13.432;2022-11-15T08:38:25;41.92;;;24.23;;
16472;SDS011;8347;52.486;13.432;2022-11-15T08:41:33;43.20;;;25.02;;
16472;SDS011;8347;52.486;13.432;2022-11-15T08:44:40;41.53;;;24.42;;
16472;SDS011;8347;52.486;13.432;2022-11-15T08:47:45;40.47;;;25.15;;
16472;SDS011;8347;52.486;13.432;2022-11-15T08:50:56;42.42;;;25.45;;
16472;SDS011;8347;52.486;13.432;2022-11-15T08:54:01;42.03;;;24.45;;
16472;SDS011;8347;52.486;13.432;2022-11-15T08:57:06;39.60;;;23.70;;
16472;SDS011;8347;52.486;13.432;2022-11-15T09:00:12;41.92;;;25.65;;
16472;SDS011;8347;52.486;13.432;2022-11-15T09:03:17;39.03;;;23.05;;
16472;SDS011;8347;52.486;13.432;2022-11-15T09:06:22;37.83;;;22.63;;
16472;SDS011;8347;52.486;13.432;2022-11-15T09:09:27;41.60;;;24.65;;
16472;SDS011;8347;52.486;13.432;2022-11-15T09:12:32;42.53;;;23.02;;
16472;SDS011;8347;52.486;13.432;2022-11-15T09:15:38;36.83;;;22.42;;
16472;SDS011;8347;52.486;13.432;2022-11-15T09:18:43;35.53;;;21.67;;
16472;SDS011;8347;52.486;13.432;2022-11-15T09:21:48;34.70;;;20.20;;
16472;SDS011;8347;52.486;13.432;2022-11-15T09:24:53;35.30;;;19.92;;
16472;SDS011;8347;52.486;13.432;2022-11-15T09:27:58;37.80;;;22.33;;
16472;SDS011;8347;52.486;13.432;2022-11-15T09:31:04;33.55;;;22.25;;
16472;SDS011;8347;52.486;13.432;2022-11-15T09:34:10;37.00;;;22.65;;
16472;SDS011;8347;52.486;13.432;2022-11-15T09:37:16;33.08;;;20.17;;
16472;SDS011;8347;52.486;13.432;2022-11-15T09:40:21;30.98;;;19.42;;
16472;SDS011;8347;52.486;13.432;2022-11-15T09:43:29;30.83;;;20.25;;
16472;SDS011;8347;52.486;13.432;2022-11-15T09:50:11;24.40;;;16.02;;
16472;SDS011;8347;52.486;13.432;2022-11-15T09:52:59;28.17;;;17.92;;
16472;SDS011;8347;52.486;13.432;2022-11-15T09:55:51;29.67;;;19.40;;
16472;SDS011;8347;52.486;13.432;2022-11-15T09:58:58;30.08;;;17.80;;
16472;SDS011;8347;52.486;13.432;2022-11-15T10:01:59;28.73;;;17.48;;
16472;SDS011;8347;52.486;13.432;2022-11-15T10:04:49;31.83;;;16.85;;
16472;SDS011;8347;52.486;13.432;2022-11-15T10:07:40;24.35;;;16.27;;
16472;SDS011;8347;52.486;13.432;2022-11-15T10:10:31;27.13;;;17.38;;
16472;SDS011;8347;52.486;13.432;2022-11-15T10:13:23;26.75;;;16.52;;
16472;SDS011;8347;52.486;13.432;2022-11-15T10:22:36;25.38;;;16.15;;
16472;SDS011;8347;52.486;13.432;2022-11-15T10:25:25;32.65;;;16.67;;
16472;SDS011;8347;52.486;13.432;2022-11-15T10:28:31;25.15;;;16.35;;
16472;SDS011;8347;52.486;13.432;2022-11-15T10:31:25;22.70;;;15.25;;
16472;SDS011;8347;52.486;13.432;2022-11-15T10:34:14;25.05;;;15.68;;
16472;SDS011;8347;52.486;13.432;2022-11-15T10:37:01;24.50;;;16.15;;
16472;SDS011;8347;52.486;13.432;2022-11-15T10:40:02;26.13;;;16.58;;
16472;SDS011;8347;52.486;13.432;2022-11-15T10:43:04;26.05;;;16.40;;
16472;SDS011;8347;52.486;13.432;2022-11-15T10:45:50;26.52;;;16.10;;
16472;SDS011;8347;52.486;13.432;2022-11-15T10:48:38;25.98;;;15.25;;
16472;SDS011;8347;52.486;13.432;2022-11-15T10:51:27;21.60;;;14.68;;
16472;SDS011;8347;52.486;13.432;2022-11-15T10:54:33;21.90;;;14.32;;
16472;SDS011;8347;52.486;13.432;2022-11-15T10:57:28;20.98;;;14.13;;
16472;SDS011;8347;52.486;13.432;2022-11-15T11:03:08;23.08;;;14.63;;
16472;SDS011;8347;52.486;13.432;2022-11-15T11:06:08;22.50;;;15.15;;
16472;SDS011;8347;52.486;13.432;2022-11-15T11:08:56;24.88;;;15.88;;
16472;SDS011;8347;52.486;13.432;2022-11-15T11:11:45;22.15;;;14.20;;
16472;SDS011;8347;52.486;13.432;2022-11-15T11:14:33;21.75;;;14.35;;
16472;SDS011;8347;52.486;13.432;2022-11-15T11:17:25;26.80;;;16.95;;
16472;SDS011;8347;52.486;13.432;2022-11-15T11:23:52;26.70;;;17.08;;
16472;SDS011;8347;52.486;13.432;2022-11-15T11:26:45;23.05;;;14.90;;
16472;SDS011;8347;52.486;13.432;2022-11-15T11:29:38;27.42;;;16.52;;
16472;SDS011;8347;52.486;13.432;2022-11-15T11:35:42;21.98;;;14.77;;
16472;SDS011;8347;52.486;13.432;2022-11-15T11:38:47;21.25;;;13.38;;
16472;SDS011;8347;52.486;13.432;2022-11-15T11:44:52;20.77;;;14.13;;
16472;SDS011;8347;52.486;13.432;2022-11-15T11:47:51;21.80;;;14.98;;
16472;SDS011;8347;52.486;13.432;2022-11-15T11:50:45;22.98;;;15.55;;
16472;SDS011;8347;52.486;13.432;2022-11-15T11:53:39;26.13;;;15.90;;
16472;SDS011;8347;52.486;13.432;2022-11-15T11:56:33;23.15;;;14.90;;
16472;SDS011;8347;52.486;13.432;2022-11-15T11:59:25;19.73;;;13.80;;
16472;SDS011;8347;52.486;13.432;2022-11-15T12:02:24;26.45;;;15.95;;
16472;SDS011;8347;52.486;13.432;2022-11-15T12:05:15;25.77;;;15.32;;
16472;SDS011;8347;52.486;13.432;2022-11-15T12:08:09;21.38;;;15.13;;
16472;SDS011;8347;52.486;13.432;2022-11-15T12:11:28;22.95;;;14.57;;
16472;SDS011;8347;52.486;13.432;2022-11-15T12:14:19;22.48;;;13.93;;
16472;SDS011;8347;52.486;13.432;2022-11-15T12:17:16;23.90;;;15.05;;
16472;SDS011;8347;52.486;13.432;2022-11-15T12:20:17;22.88;;;15.13;;
16472;SDS011;8347;52.486;13.432;2022-11-15T12:25:55;23.08;;;13.98;;
16472;SDS011;8347;52.486;13.432;2022-11-15T12:31:38;20.00;;;12.30;;
16472;SDS011;8347;52.486;13.432;2022-11-15T12:34:30;19.55;;;13.43;;
16472;SDS011;8347;52.486;13.432;2022-11-15T12:37:34;22.17;;;13.95;;
16472;SDS011;8347;52.486;13.432;2022-11-15T12:41:12;20.95;;;14.02;;
16472;SDS011;8347;52.486;13.432;2022-11-15T12:43:48;22.77;;;15.50;;
16472;SDS011;8347;52.486;13.432;2022-11-15T12:52:14;20.05;;;14.13;;
16472;SDS011;8347;52.486;13.432;2022-11-15T12:55:01;25.60;;;15.77;;
16472;SDS011;8347;52.486;13.432;2022-11-15T12:58:28;20.77;;;14.43;;
16472;SDS011;8347;52.486;13.432;2022-11-15T13:07:07;20.73;;;13.52;;
16472;SDS011;8347;52.486;13.432;2022-11-15T13:09:54;18.17;;;12.82;;
16472;SDS011;8347;52.486;13.432;2022-11-15T13:18:30;24.10;;;14.50;;
16472;SDS011;8347;52.486;13.432;2022-11-15T13:21:21;22.55;;;13.90;;
16472;SDS011;8347;52.486;13.432;2022-11-15T13:24:27;23.40;;;14.65;;
16472;SDS011;8347;52.486;13.432;2022-11-15T13:27:18;21.23;;;14.57;;
16472;SDS011;8347;52.486;13.432;2022-11-15T13:30:05;20.98;;;14.23;;
16472;SDS011;8347;52.486;13.432;2022-11-15T13:33:00;21.45;;;14.40;;
16472;SDS011;8347;52.486;13.432;2022-11-15T13:35:52;18.77;;;13.95;;
16472;SDS011;8347;52.486;13.432;2022-11-15T13:38:40;22.95;;;16.10;;
16472;SDS011;8347;52.486;13.432;2022-11-15T13:41:28;25.70;;;15.05;;
16472;SDS011;8347;52.486;13.432;2022-11-15T13:44:20;19.40;;;14.23;;
16472;SDS011;8347;52.486;13.432;2022-11-15T13:47:13;19.13;;;13.02;;
16472;SDS011;8347;52.486;13.432;2022-11-15T13:50:01;16.60;;;11.85;;
16472;SDS011;8347;52.486;13.432;2022-11-15T13:52:47;17.80;;;11.35;;
16472;SDS011;8347;52.486;13.432;2022-11-15T13:55:34;15.30;;;11.00;;
16472;SDS011;8347;52.486;13.432;2022-11-15T13:58:21;17.08;;;11.75;;
16472;SDS011;8347;52.486;13.432;2022-11-15T14:01:11;16.40;;;11.25;;
16472;SDS011;8347;52.486;13.432;2022-11-15T14:04:00;17.10;;;11.93;;
16472;SDS011;8347;52.486;13.432;2022-11-15T14:06:48;17.58;;;11.63;;
16472;SDS011;8347;52.486;13.432;2022-11-15T14:12:30;16.88;;;11.90;;
16472;SDS011;8347;52.486;13.432;2022-11-15T14:15:18;17.02;;;12.18;;
16472;SDS011;8347;52.486;13.432;2022-11-15T14:18:37;19.40;;;14.00;;
16472;SDS011;8347;52.486;13.432;2022-11-15T14:21:17;20.30;;;14.27;;
16472;SDS011;8347;52.486;13.432;2022-11-15T14:24:13;17.35;;;12.80;;
16472;SDS011;8347;52.486;13.432;2022-11-15T14:27:17;20.80;;;12.65;;
16472;SDS011;8347;52.486;13.432;2022-11-15T14:30:04;20.58;;;12.85;;
16472;SDS011;8347;52.486;13.432;2022-11-15T14:32:51;18.30;;;12.00;;
16472;SDS011;8347;52.486;13.432;2022-11-15T14:35:37;17.77;;;12.73;;
16472;SDS011;8347;52.486;13.432;2022-11-15T14:38:24;18.20;;;12.48;;
16472;SDS011;8347;52.486;13.432;2022-11-15T14:41:18;19.42;;;11.85;;
16472;SDS011;8347;52.486;13.432;2022-11-15T14:44:05;16.50;;;11.55;;
16472;SDS011;8347;52.486;13.432;2022-11-15T14:46:52;22.08;;;12.43;;
16472;SDS011;8347;52.486;13.432;2022-11-15T14:49:39;20.63;;;12.32;;
16472;SDS011;8347;52.486;13.432;2022-11-15T14:52:29;18.92;;;12.63;;
16472;SDS011;8347;52.486;13.432;2022-11-15T14:55:20;21.15;;;12.88;;
16472;SDS011;8347;52.486;13.432;2022-11-15T14:58:09;19.55;;;13.63;;
16472;SDS011;8347;52.486;13.432;2022-11-15T15:00:56;21.23;;;13.18;;
16472;SDS011;8347;52.486;13.432;2022-11-15T15:03:42;16.58;;;11.32;;
16472;SDS011;8347;52.486;13.432;2022-11-15T15:06:29;21.40;;;13.80;;
16472;SDS011;8347;52.486;13.432;2022-11-15T15:09:16;20.20;;;13.55;;
16472;SDS011;8347;52.486;13.432;2022-11-15T15:12:03;18.10;;;11.55;;
16472;SDS011;8347;52.486;13.432;2022-11-15T15:14:50;18.33;;;12.68;;
16472;SDS011;8347;52.486;13.432;2022-11-15T15:17:36;21.65;;;13.38;;
16472;SDS011;8347;52.486;13.432;2022-11-15T15:20:23;21.00;;;13.88;;
16472;SDS011;8347;52.486;13.432;2022-11-15T15:23:19;19.13;;;13.10;;
16472;SDS011;8347;52.486;13.432;2022-11-15T15:26:06;19.40;;;14.32;;
16472;SDS011;8347;52.486;13.432;2022-11-15T15:28:53;20.27;;;14.23;;
16472;SDS011;8347;52.486;13.432;2022-11-15T15:31:39;19.77;;;13.77;;
16472;SDS011;8347;52.486;13.432;2022-11-15T15:34:26;28.40;;;16.40;;
16472;SDS011;8347;52.486;13.432;2022-11-15T15:37:23;25.60;;;15.07;;
16472;SDS011;8347;52.486;13.432;2022-11-15T15:42:59;24.10;;;15.43;;
16472;SDS011;8347;52.486;13.432;2022-11-15T15:45:46;25.52;;;15.45;;
16472;SDS011;8347;52.486;13.432;2022-11-15T15:48:32;21.23;;;13.82;;
16472;SDS011;8347;52.486;13.432;2022-11-15T15:51:22;25.70;;;15.73;;
16472;SDS011;8347;52.486;13.432;2022-11-15T15:54:09;22.58;;;15.63;;
16472;SDS011;8347;52.486;13.432;2022-11-15T15:56:55;26.77;;;16.10;;
16472;SDS011;8347;52.486;13.432;2022-11-15T15:59:42;25.33;;;16.65;;
16472;SDS011;8347;52.486;13.432;2022-11-15T16:02:28;22.17;;;16.23;;
16472;SDS011;8347;52.486;13.432;2022-11-15T16:05:15;24.65;;;16.33;;
16472;SDS011;8347;52.486;13.432;2022-11-15T16:08:03;24.88;;;16.25;;
16472;SDS011;8347;52.486;13.432;2022-11-15T16:10:50;30.05;;;19.45;;
16472;SDS011;8347;52.486;13.432;2022-11-15T16:13:36;25.75;;;17.60;;
16472;SDS011;8347;52.486;13.432;2022-11-15T16:16:22;24.63;;;16.05;;
16472;SDS011;8347;52.486;13.432;2022-11-15T16:19:09;25.48;;;14.70;;
16472;SDS011;8347;52.486;13.432;2022-11-15T16:21:57;30.27;;;17.63;;
16472;SDS011;8347;52.486;13.432;2022-11-15T16:24:43;25.67;;;17.85;;
16472;SDS011;8347;52.486;13.432;2022-11-15T16:27:30;26.90;;;15.50;;
16472;SDS011;8347;52.486;13.432;2022-11-15T16:30:18;31.27;;;17.15;;
16472;SDS011;8347;52.486;13.432;2022-11-15T16:33:07;26.50;;;17.63;;
16472;SDS011;8347;52.486;13.432;2022-11-15T16:35:54;27.20;;;17.55;;
16472;SDS011;8347;52.486;13.432;2022-11-15T16:38:40;26.95;;;16.95;;
16472;SDS011;8347;52.486;13.432;2022-11-15T16:41:27;28.75;;;18.38;;
16472;SDS011;8347;52.486;13.432;2022-11-15T16:44:13;25.70;;;17.85;;
16472;SDS011;8347;52.486;13.432;2022-11-15T16:47:00;32.17;;;19.67;;
16472;SDS011;8347;52.486;13.432;2022-11-15T16:49:47;29.42;;;20.02;;
16472;SDS011;8347;52.486;13.432;2022-11-15T16:52:33;28.45;;;19.20;;
16472;SDS011;8347;52.486;13.432;2022-11-15T16:55:21;29.50;;;20.27;;
16472;SDS011;8347;52.486;13.432;2022-11-15T16:58:08;30.75;;;21.15;;
16472;SDS011;8347;52.486;13.432;2022-11-15T17:00:55;34.67;;;21.90;;
16472;SDS011;8347;52.486;13.432;2022-11-15T17:03:42;33.17;;;22.17;;
16472;SDS011;8347;52.486;13.432;2022-11-15T17:06:28;35.10;;;22.45;;
16472;SDS011;8347;52.486;13.432;2022-11-15T17:09:18;34.05;;;24.60;;
16472;SDS011;8347;52.486;13.432;2022-11-15T17:12:05;37.28;;;24.67;;
16472;SDS011;8347;52.486;13.432;2022-11-15T17:14:52;39.30;;;25.17;;
16472;SDS011;8347;52.486;13.432;2022-11-15T17:17:39;45.20;;;26.83;;
16472;SDS011;8347;52.486;13.432;2022-11-15T17:20:25;38.28;;;25.25;;
16472;SDS011;8347;52.486;13.432;2022-11-15T17:23:12;39.00;;;26.10;;
16472;SDS011;8347;52.486;13.432;2022-11-15T17:26:00;43.00;;;27.13;;
16472;SDS011;8347;52.486;13.432;2022-11-15T17:28:52;41.55;;;27.85;;
16472;SDS011;8347;52.486;13.432;2022-11-15T17:31:39;39.83;;;26.95;;
16472;SDS011;8347;52.486;13.432;2022-11-15T17:34:26;44.20;;;29.00;;
16472;SDS011;8347;52.486;13.432;2022-11-15T17:37:12;43.28;;;28.25;;
16472;SDS011;8347;52.486;13.432;2022-11-15T17:40:01;41.47;;;27.65;;
16472;SDS011;8347;52.486;13.432;2022-11-15T17:42:47;48.60;;;29.88;;
16472;SDS011;8347;52.486;13.432;2022-11-15T17:45:34;48.33;;;29.00;;
16472;SDS011;8347;52.486;13.432;2022-11-15T17:48:26;43.50;;;29.38;;
16472;SDS011;8347;52.486;13.432;2022-11-15T17:51:14;46.53;;;28.63;;
16472;SDS011;8347;52.486;13.432;2022-11-15T17:54:01;43.95;;;29.45;;
16472;SDS011;8347;52.486;13.432;2022-11-15T17:56:47;46.03;;;27.30;;
16472;SDS011;8347;52.486;13.432;2022-11-15T17:59:33;46.00;;;29.95;;
16472;SDS011;8347;52.486;13.432;2022-11-15T18:02:19;40.67;;;27.08;;
16472;SDS011;8347;52.486;13.432;2022-11-15T18:05:06;46.45;;;28.45;;
16472;SDS011;8347;52.486;13.432;2022-11-15T18:07:53;45.08;;;28.40;;
16472;SDS011;8347;52.486;13.432;2022-11-15T18:10:39;46.42;;;29.52;;
16472;SDS011;8347;52.486;13.432;2022-11-15T18:13:26;43.55;;;28.33;;
16472;SDS011;8347;52.486;13.432;2022-11-15T18:16:13;44.65;;;29.17;;
16472;SDS011;8347;52.486;13.432;2022-11-15T18:19:02;46.60;;;29.25;;
16472;SDS011;8347;52.486;13.432;2022-11-15T18:21:57;45.83;;;27.60;;
16472;SDS011;8347;52.486;13.432;2022-11-15T18:24:45;43.85;;;28.70;;